Ojibwa, Wisconsin
Current Conditions -  °F | °C
As of 4:35 PM on Saturday 25 Oct 2014 (Local Time) from KRCX Reporting Station
Clear Clear  
Wind Chill: 16°   Ceiling: Unl
Heat Index: 16°   Visibility: 10mi
Dew Point: -5°   Wind: 21mph
Humidity: 24%   Direction: 300°WNW
Pressure: 29.95"   Gusts: 26mph
Location:  45.8°N, 91.12°W
Report Text: KRCX 252135Z AUTO 30018G23KT 10SM CLR 16/M05 A2995 RMK AO2 T01571052
Loading
Personal Weather Stations






























Interactive Weather Map
Tropical Storm Tracking
New forecast layout! Learn more

10-Day Weather Forecast

Advertisements
Track Severe Weather on mobile